This is the latest recevied weather packets stored in our database for station/object K1BES. If no packets are shown the sender has not sent any weather packets the latest 10 day(s).
| Time | Temp. | Humidity | Pressure | Rain* | Wind** | Luminosity | Snow |
|---|---|---|---|---|---|---|---|
| 1777924112 | 30.56° C | 44% | 1015.5 hPa | 0 mm | - | 406 W/m² | - |
| 1777923807 | 31.11° C | 44% | 1015.5 hPa | 0 mm | - | 210 W/m² | - |
| 1777923503 | 31.11° C | 42% | 1015.7 hPa | 0 mm | - | 243 W/m² | - |
| 1777923201 | 30.56° C | 44% | 1015.6 hPa | 0 mm | - | 965 W/m² | - |
| 1777922900 | 31.11° C | 42% | 1015.6 hPa | 0 mm | - | 289 W/m² | - |
| 1777922597 | 30.56° C | 44% | 1015.5 hPa | 0 mm | - | 1025 W/m² | - |
| 1777922296 | 30.56° C | 44% | 1015.7 hPa | 0 mm | - | 765 W/m² | - |
| 1777921993 | 31.11° C | 44% | 1015.7 hPa | 0 mm | - | 583 W/m² | - |
| 1777921688 | 31.67° C | 44% | 1015.9 hPa | 0 mm | - | 1034 W/m² | - |
| 1777921384 | 31.11° C | 44% | 1016.3 hPa | 0 mm | - | 1019 W/m² | - |
| 1777921081 | 30.56° C | 47% | 1016.3 hPa | 0 mm | - | 1083 W/m² | - |
| 1777920778 | 30° C | 46% | 1016.3 hPa | 0 mm | - | 346 W/m² | - |
| 1777920474 | 30° C | 47% | 1016.2 hPa | 0 mm | - | 256 W/m² | - |
| 1777920170 | 31.67° C | 44% | 1016.3 hPa | 0 mm | - | 277 W/m² | - |
| 1777919866 | 30.56° C | 46% | 1016.5 hPa | 0 mm | - | 1113 W/m² | - |
| 1777919563 | 30° C | 47% | 1016.5 hPa | 0 mm | - | 404 W/m² | - |
| 1777919261 | 30.56° C | 47% | 1016.5 hPa | 0 mm | - | 1157 W/m² | - |
| 1777918958 | 31.11° C | 45% | 1016.8 hPa | 0 mm | - | 1127 W/m² | - |
| 1777918656 | 31.11° C | 46% | 1016.9 hPa | 0 mm | - | 1089 W/m² | - |
| 1777918353 | 30.56° C | 46% | 1016.9 hPa | 0 mm | - | 1132 W/m² | - |
| 1777918052 | 30.56° C | 47% | 1016.9 hPa | 0 mm | - | 1150 W/m² | - |
| 1777917750 | 30.56° C | 46% | 1016.9 hPa | 0 mm | - | 1070 W/m² | - |
| 1777917447 | 29.44° C | 49% | 1016.8 hPa | 0 mm | - | 1090 W/m² | - |
| 1777917144 | 28.89° C | 51% | 1017 hPa | 0 mm | - | 1116 W/m² | - |
| 1777916842 | 28.33° C | 52% | 1017.2 hPa | 0 mm | - | 1119 W/m² | - |
* Rain latest hour (hover to see other rain measurements)
** Current wind speed in m/s (hover to see current wind gust speed)